Ogallala, NE

7:54 PM MDT on August 17, 2017 (GMT -0600)
Searle

Weather History for KOGA - March, 2013

Change the Weather History Date:

Saturday, March 16, 2013

  Actual Average Record
Temperature  
Mean Temperature 40 °F -  
Max Temperature 46 °F 47 °F 127 °F (1999)
Min Temperature 32 °F 25 °F 10 °F (1960)
Degree Days  
Heating Degree Days 25    
Moisture  
Dew Point 29 °F    
Average Humidity 68    
Maximum Humidity 90    
Minimum Humidity 49    
Precipitation  
Precipitation 0.00 in - - ()
Sea Level Pressure  
Sea Level Pressure 29.99 in    
Wind  
Wind Speed 8 mph (East)    
Max Wind Speed 17 mph    
Max Gust Speed 21 mph    
Visibility 10 miles    
Events      
Averages and records for this station are not official NWS values.
T = Trace of Precipitation, MM = Missing Value Source: NWS Daily Summary

Daily Weather History Graph

Daily Weather History Graph

Search for Another Location

Airport or City:

Trip Planner

Search our weather history database for the weather conditions in past years. The results will help you decide how hot, cold, wet, or windy it might be!

Date:

Astronomy

Mar. 16, 2013 Rise Set
Actual Time 6:56 AM MDT 6:55 PM MDT
Civil Twilight 6:29 AM MDT 7:22 PM MDT
Nautical Twilight 5:57 AM MDT 7:54 PM MDT
Astronomical Twilight 5:24 AM MDT 8:27 PM MDT
Moon 9:25 AM MDT (3/16) No Moon Set
Length of Visible Light 12h 53m
Length of Day
11h 58m
Waxing Crescent, 23% of the Moon is Illuminated
Mar 16
Waxing Crescent
Mar 19
First Quarter
Mar 27
Full
Apr 2
Last Quarter
Apr 10
New

Hourly Weather History & Observations

Time (MDT) Temp. Windchill Dew Point Humidity Pressure Visibility Wind Dir Wind Speed Gust Speed Precip Events Conditions
12:15 AM 48.2 °F - 31.1 °F 52% 29.93 in 10.0 mi ENE 10.4 mph - N/A   Scattered Clouds
12:35 AM 46.2 °F 42.7 °F 31.6 °F 57% 29.94 in 10.0 mi NE 6.9 mph - N/A   Mostly Cloudy
12:55 AM 45.1 °F 38.8 °F 31.6 °F 59% 29.94 in 10.0 mi NE 13.8 mph - N/A   Scattered Clouds
1:15 AM 44.1 °F 38.6 °F 31.8 °F 62% 29.95 in 10.0 mi NE 10.4 mph - N/A   Clear
1:35 AM 42.4 °F 37.0 °F 32.0 °F 67% 29.96 in 10.0 mi NNE 9.2 mph - N/A   Clear
1:55 AM 41.4 °F 36.2 °F 32.0 °F 69% 29.97 in 10.0 mi North 8.1 mph - N/A   Clear
2:15 AM 41.2 °F 39.2 °F 32.0 °F 70% 29.98 in 10.0 mi NNE 3.5 mph - N/A   Clear
2:35 AM 39.2 °F - 31.8 °F 75% 29.99 in 10.0 mi Calm Calm - N/A   Scattered Clouds
2:55 AM 39.0 °F - 31.1 °F 73% 30.00 in 10.0 mi Calm Calm - N/A   Mostly Cloudy
3:15 AM 39.6 °F - 31.5 °F 73% 30.01 in 10.0 mi Calm Calm - N/A   Scattered Clouds
3:35 AM 39.0 °F - 31.3 °F 74% 30.01 in 10.0 mi Calm Calm - N/A   Scattered Clouds
3:55 AM 39.0 °F - 31.5 °F 74% 30.00 in 10.0 mi Calm Calm - N/A   Scattered Clouds
4:15 AM 38.1 °F - 32.0 °F 79% 30.00 in 10.0 mi Calm Calm - N/A   Clear
4:35 AM 37.8 °F 34.2 °F 32.0 °F 80% 30.02 in 10.0 mi North 4.6 mph - N/A   Clear
4:55 AM 38.3 °F - 32.2 °F 79% 30.01 in 10.0 mi Calm Calm - N/A   Clear
5:15 AM 37.9 °F - 32.0 °F 79% 30.02 in 10.0 mi Calm Calm - N/A   Clear
5:35 AM 37.8 °F - 32.0 °F 80% 30.02 in 10.0 mi Calm Calm - N/A   Clear
5:55 AM 37.9 °F - 31.8 °F 79% 30.02 in 10.0 mi Calm Calm - N/A   Scattered Clouds
6:15 AM 35.8 °F 30.1 °F 31.8 °F 86% 30.03 in 10.0 mi ENE 6.9 mph - N/A   Scattered Clouds
6:35 AM 35.1 °F 28.6 °F 31.6 °F 87% 30.03 in 10.0 mi East 8.1 mph - N/A   Clear
6:55 AM 34.0 °F 26.6 °F 30.0 °F 85% 30.04 in 10.0 mi NE 9.2 mph - N/A   Clear
7:15 AM 33.1 °F 26.9 °F 29.8 °F 88% 30.04 in 10.0 mi NE 6.9 mph - N/A   Clear
7:35 AM 32.4 °F 24.6 °F 29.8 °F 90% 30.04 in 7.0 mi ENE 9.2 mph - N/A   Clear
7:55 AM 32.9 °F 24.7 °F 29.8 °F 88% 30.04 in 10.0 mi ENE 10.4 mph - N/A   Clear
8:15 AM 33.8 °F 25.8 °F 30.0 °F 86% 30.04 in 10.0 mi ENE 10.4 mph - N/A   Clear
8:35 AM 34.3 °F 26.5 °F 30.2 °F 85% 30.04 in 10.0 mi ENE 10.4 mph - N/A   Clear
8:55 AM 34.5 °F 27.3 °F 30.2 °F 84% 30.04 in 10.0 mi ENE 9.2 mph - N/A   Scattered Clouds
9:15 AM 36.0 °F 29.0 °F 30.6 °F 81% 30.05 in 10.0 mi ENE 9.2 mph - N/A   Mostly Cloudy
9:35 AM 37.0 °F 32.4 °F 30.4 °F 77% 30.05 in 10.0 mi NE 5.8 mph - N/A   Scattered Clouds
9:55 AM 37.9 °F 32.7 °F 30.0 °F 73% 30.05 in 10.0 mi East 6.9 mph - N/A   Scattered Clouds
10:15 AM 38.3 °F 33.9 °F 30.0 °F 72% 30.05 in 10.0 mi East 5.8 mph - N/A   Clear
10:35 AM 39.4 °F 36.1 °F 30.0 °F 69% 30.06 in 10.0 mi East 4.6 mph - N/A   Clear
10:55 AM 41.0 °F 38.0 °F 30.2 °F 65% 30.05 in 10.0 mi ENE 4.6 mph - N/A   Clear
11:15 AM 41.5 °F 38.6 °F 29.8 °F 63% 30.05 in 10.0 mi East 4.6 mph - N/A   Clear
11:35 AM 41.9 °F 36.9 °F 29.1 °F 61% 30.04 in 10.0 mi East 8.1 mph - N/A   Scattered Clouds
11:55 AM 42.8 °F 38.0 °F 29.1 °F 58% 30.03 in 10.0 mi ENE 8.1 mph - N/A   Mostly Cloudy
12:15 PM 43.7 °F 42.1 °F 29.3 °F 57% 30.03 in 10.0 mi ENE 3.5 mph - N/A   Mostly Cloudy
12:55 PM 45.0 °F 43.5 °F 28.2 °F 52% 30.02 in 10.0 mi ENE 3.5 mph - N/A   Mostly Cloudy
1:15 PM 44.8 °F 43.3 °F 27.3 °F 50% 30.01 in 10.0 mi East 3.5 mph - N/A   Mostly Cloudy
1:35 PM 45.0 °F 41.2 °F 28.4 °F 52% 30.00 in 10.0 mi SE 6.9 mph - N/A   Overcast
1:55 PM 44.8 °F 41.6 °F 27.9 °F 52% 30.00 in 10.0 mi ESE 5.8 mph - N/A   Overcast
2:15 PM 45.5 °F 41.8 °F 27.5 °F 49% 29.98 in 10.0 mi ESE 6.9 mph - N/A   Overcast
2:35 PM 45.5 °F 40.8 °F 28.0 °F 51% 29.97 in 10.0 mi ESE 9.2 mph - N/A   Overcast
2:55 PM 46.0 °F 41.0 °F 27.9 °F 49% 29.96 in 10.0 mi East 10.4 mph - N/A   Mostly Cloudy
3:15 PM 46.2 °F 40.8 °F 27.9 °F 49% 29.95 in 10.0 mi ESE 11.5 mph - N/A   Scattered Clouds
3:35 PM 45.5 °F 39.6 °F 28.4 °F 51% 29.96 in 10.0 mi SE 12.7 mph - N/A   Mostly Cloudy
3:55 PM 44.6 °F 38.8 °F 30.6 °F 58% 29.96 in 10.0 mi SSE 11.5 mph - N/A   Overcast
4:15 PM 44.2 °F 38.8 °F 30.6 °F 59% 29.95 in 10.0 mi ESE 10.4 mph - N/A   Overcast
4:35 PM 44.2 °F 38.4 °F 30.2 °F 58% 29.94 in 10.0 mi ESE 11.5 mph - N/A   Mostly Cloudy
4:55 PM 44.4 °F 38.2 °F 28.9 °F 55% 29.95 in 10.0 mi ESE 12.7 mph - N/A   Scattered Clouds
5:15 PM 43.9 °F 36.8 °F 28.2 °F 54% 29.94 in 10.0 mi ESE 15.0 mph - N/A   Scattered Clouds
5:35 PM 43.5 °F 35.8 °F 28.2 °F 55% 29.93 in 10.0 mi East 17.3 mph - N/A   Scattered Clouds
5:55 PM 42.3 °F 34.4 °F 27.5 °F 56% 29.93 in 10.0 mi ESE 16.1 mph - N/A   Scattered Clouds
6:15 PM 41.2 °F 33.0 °F 27.0 °F 57% 29.93 in 10.0 mi ESE 16.1 mph - N/A   Clear
6:35 PM 40.6 °F 32.3 °F 26.6 °F 57% 29.93 in 10.0 mi ESE 16.1 mph - N/A   Clear
6:55 PM 39.7 °F 31.5 °F 26.6 °F 59% 29.92 in 10.0 mi ESE 15.0 mph 20.7 mph N/A   Clear
7:15 PM 38.3 °F 29.7 °F 25.7 °F 61% 29.93 in 10.0 mi East 15.0 mph - N/A   Clear
7:35 PM 36.9 °F 27.8 °F 25.2 °F 63% 29.92 in 10.0 mi East 15.0 mph - N/A   Clear
7:55 PM 36.0 °F 27.1 °F 25.3 °F 65% 29.94 in 10.0 mi ESE 13.8 mph - N/A   Clear
8:15 PM 35.2 °F 26.6 °F 25.3 °F 67% 29.94 in 10.0 mi East 12.7 mph - N/A   Clear
8:35 PM 34.7 °F 26.9 °F 25.3 °F 69% 29.95 in 10.0 mi East 10.4 mph - N/A   Clear
8:55 PM 34.2 °F 26.8 °F 25.3 °F 70% 29.96 in 10.0 mi East 9.2 mph - N/A   Clear
9:15 PM 33.4 °F 26.6 °F 25.5 °F 73% 29.96 in 10.0 mi ESE 8.1 mph - N/A   Clear
9:35 PM 33.3 °F 26.4 °F 25.7 °F 74% 29.96 in 10.0 mi ESE 8.1 mph - N/A   Mostly Cloudy
9:55 PM 34.2 °F 27.5 °F 26.4 °F 73% 29.96 in 10.0 mi ESE 8.1 mph - N/A   Overcast
10:15 PM 35.6 °F 27.1 °F 28.2 °F 75% 29.96 in 10.0 mi SE 12.7 mph 16.1 mph N/A   Overcast
10:35 PM 35.1 °F 26.4 °F 28.0 °F 76% 29.96 in 10.0 mi SE 12.7 mph 19.6 mph N/A   Overcast
10:55 PM 34.7 °F 25.5 °F 27.5 °F 75% 29.95 in 10.0 mi SE 13.8 mph - N/A   Overcast
11:15 PM 34.5 °F 26.7 °F 27.9 °F 77% 29.95 in 10.0 mi SE 10.4 mph - N/A   Overcast
11:35 PM 34.2 °F 25.7 °F 27.5 °F 77% 29.95 in 10.0 mi SE 11.5 mph - N/A   Overcast
11:55 PM 33.8 °F 25.8 °F 27.3 °F 77% 29.95 in 10.0 mi SE 10.4 mph 18.4 mph N/A   Overcast